aviador You're here:

CYXT Decoded Metar

TERRACE in BC, CANADA
Report Time2018-06-22 01:00:00
UTC Time2018-06-22 01:13:50
Flight Rules vfr VFR
Wind170° at 21 Gusting to 29 kt
W.Decomp.*RWY 15: 21.0 kt HW 0.7 kt LCW
RWY 21: 9.9 kt HW 18.5 kt LCW
W.Rank170° ranks 2
Current wind is above 170° avg. (12.1)
Visibility9999 m
Phenomena:N/A
Clouds:Few TCU 055 Hf
Scattered 120 Hf
Broken 240 Hf
Expected CloudBase > 6,000 ft AGL from Temp-Dew spread
Ceiling24,000 ft
Temp23°C (ISA +9)
Dew Point08°C (38% RH)
AAT15.0°C
QNH1014 hPa
Density Alt1,919 ft
Elevation712 ft
Report Wrong Elevation
Raw Report
CYXT 220100Z 17021G29KT 20SM FEW055TCU SCT120 BKN240 23/08 A2994
RMK TCU2AC1CI4 SLP142 DENSITY ALT 1800FT=

Extra information for CYXT:More info

Metar Taf Metar & Taf Last 4 Metars F.Rules Stats Wind Profile Meteogram Temp Stats Airport Information Weather charts Add Link Nearby VenuesMetar ALERT Operation Metar Decoded Social comments